Time;durP1;ratioP1;P1;durP2;ratioP2;P2;SDS_P1;SDS_P2;PMS_P1;PMS_P2;Temp;Humidity;BMP_temperature;BMP_pressure;BME280_temperature;BME280_humidity;BME280_pressure;Samples;Min_cycle;Max_cycle;Signal;HPM_P1;HPM_P2
2022/02/16 04:27:06;;;;;;;;;;;;;;;2.24;93.33;98792.56;4919367;29;19933;-79
2022/02/16 04:29:32;;;;;;;;;;;;;;;2.16;93.60;98782.31;4922212;29;19933;-82
2022/02/16 04:31:58;;;;;;;;;;;;;;;2.04;93.42;98784.34;4922668;29;19919;-81
2022/02/16 04:34:23;;;;;;;;;;;;;;;2.04;93.36;98766.91;4921648;29;19919;-82
2022/02/16 04:36:48;;;;;;;;;;;;;;;1.90;93.32;98769.88;4923357;29;19922;-81
2022/02/16 04:39:15;;;;;;;;;;;;;;;1.84;93.00;98777.84;4922105;29;19923;-81
2022/02/16 04:41:40;;;;;;;;;;;;;;;1.83;92.94;98773.50;4924709;29;19923;-88
2022/02/16 04:44:06;;;;;;;;;;;;;;;1.80;92.86;98768.38;4907530;29;20299;-82
2022/02/16 04:46:32;;;;;;;;;;;;;;;1.60;92.19;98779.28;4922631;29;19919;-82
2022/02/16 04:48:57;;;;;;;;;;;;;;;1.56;91.58;98775.84;4922957;29;19915;-82
2022/02/16 04:51:23;;;;;;;;;;;;;;;1.53;92.02;98764.63;4923582;29;19919;-84
2022/02/16 04:53:48;;;;;;;;;;;;;;;1.47;91.78;98757.81;4921645;29;19926;-84
2022/02/16 04:56:13;;;;;;;;;;;;;;;1.39;91.52;98752.75;4920039;29;19926;-83
2022/02/16 04:58:39;;;;;;;;;;;;;;;1.29;90.59;98752.97;4922308;29;19965;-82
2022/02/16 05:01:04;;;;;;;;;;;;;;;1.46;91.24;98750.88;4923643;29;20294;-82
2022/02/16 05:03:29;;;;;;;;;;;;;;;1.92;95.30;98741.94;4924116;29;19919;-81
2022/02/16 05:05:55;;;;;;;;;;;;;;;2.44;99.55;98734.56;4922040;29;19931;-83
2022/02/16 05:08:20;;;;;;;;;;;;;;;2.65;100.00;98733.09;4922794;29;20021;-81
2022/02/16 05:10:45;;;;;;;;;;;;;;;2.88;100.00;98726.38;4920707;29;19923;-81
2022/02/16 05:13:11;;;;;;;;;;;;;;;2.78;100.00;98722.31;4921924;29;19929;-81
2022/02/16 05:15:36;;;;;;;;;;;;;;;2.88;100.00;98714.13;4922440;29;19919;-81
2022/02/16 05:18:01;;;;;;;;;;;;;;;2.87;100.00;98711.56;4921860;29;20350;-81
2022/02/16 05:20:27;;;;;;;;;;;;;;;2.93;100.00;98714.00;4922357;29;20323;-81
2022/02/16 05:22:52;;;;;;;;;;;;;;;2.99;100.00;98700.75;4922377;29;19923;-81
2022/02/16 05:25:17;;;;;;;;;;;;;;;3.04;100.00;98698.84;4921119;29;20560;-82
2022/02/16 05:27:43;;;;;;;;;;;;;;;3.11;100.00;98703.91;4923482;29;19922;-81
2022/02/16 05:30:08;;;;;;;;;;;;;;;3.16;100.00;98696.75;4922422;29;20389;-78
2022/02/16 05:32:34;;;;;;;;;;;;;;;3.07;100.00;98683.06;4921146;29;20057;-78
2022/02/16 05:34:59;;;;;;;;;;;;;;;3.13;100.00;98692.50;4938917;29;19966;-78
2022/02/16 08:57:24;;;;;;;;;;;;;;;3.88;77.89;98559.97;4922418;29;19930;-79
2022/02/16 08:59:50;;;;;;;;;;;;;;;3.84;77.67;98561.84;4905774;29;19927;-80
2022/02/16 09:02:15;;;;;;;;;;;;;;;3.85;77.47;98558.34;4927465;29;19997;-79
2022/02/16 09:04:40;;;;;;;;;;;;;;;3.90;77.36;98564.25;4924136;29;19922;-84
2022/02/16 09:09:50;;;;;;;;;;;;;;;3.92;77.18;98559.81;4919215;29;19933;-80
2022/02/16 09:12:15;;;;;;;;;;;;;;;3.96;77.45;98560.59;4908353;29;19923;-80
2022/02/16 09:14:40;;;;;;;;;;;;;;;3.89;76.89;98553.84;4923595;29;20445;-81
2022/02/16 09:17:06;;;;;;;;;;;;;;;3.94;76.89;98554.53;4926981;29;19918;-81
2022/02/16 09:19:32;;;;;;;;;;;;;;;3.99;76.66;98553.47;4910550;29;20394;-80
2022/02/16 09:21:58;;;;;;;;;;;;;;;3.96;76.49;98557.97;4928193;29;19922;-81
2022/02/16 09:24:23;;;;;;;;;;;;;;;3.96;76.27;98557.97;4911906;29;20385;-81
2022/02/16 09:26:50;;;;;;;;;;;;;;;3.98;76.11;98545.66;4908716;29;19923;-82
2022/02/16 09:29:17;;;;;;;;;;;;;;;3.95;75.85;98562.34;4908845;29;19965;-81
2022/02/16 09:31:42;;;;;;;;;;;;;;;3.98;76.01;98556.13;4909913;29;19962;-80
2022/02/16 09:34:08;;;;;;;;;;;;;;;3.98;75.98;98545.66;4911109;29;19985;-81
2022/02/16 09:36:33;;;;;;;;;;;;;;;4.03;75.73;98548.97;4927168;29;19958;-81
2022/02/16 09:38:58;;;;;;;;;;;;;;;4.05;75.80;98546.28;4912267;29;19939;-81
2022/02/16 09:41:24;;;;;;;;;;;;;;;4.03;75.76;98535.84;4925776;29;19961;-84
2022/02/16 09:43:49;;;;;;;;;;;;;;;4.03;75.85;98543.72;4924687;29;20433;-81
2022/02/16 09:46:15;;;;;;;;;;;;;;;4.03;75.55;98546.34;4924010;29;20436;-84
2022/02/16 09:48:40;;;;;;;;;;;;;;;4.06;75.50;98540.97;4922306;29;19927;-84
2022/02/16 09:51:06;;;;;;;;;;;;;;;4.05;75.52;98549.75;4926058;29;19923;-81
2022/02/16 09:53:31;;;;;;;;;;;;;;;4.10;75.59;98539.09;4925740;29;19930;-81
2022/02/16 09:55:56;;;;;;;;;;;;;;;4.12;75.62;98543.38;4925375;29;19922;-85
2022/02/16 09:58:21;;;;;;;;;;;;;;;4.13;75.49;98545.09;4905929;29;19935;-87
2022/02/16 10:01:00;;;;;;;;;;;;;;;4.17;75.53;98556.34;4909690;29;20039;-87
2022/02/16 10:03:25;;;;;;;;;;;;;;;4.19;75.41;98551.88;4920683;29;20941;-86
2022/02/16 10:05:51;;;;;;;;;;;;;;;4.14;75.29;98536.31;4906192;29;19923;-81
2022/02/16 10:08:36;;;;;;;;;;;;;;;4.15;75.19;98547.69;4903111;29;20570;-82
2022/02/16 10:11:01;;;;;;;;;;;;;;;4.23;75.28;98550.00;4916976;29;19923;-85
2022/02/16 10:13:26;;;;;;;;;;;;;;;4.23;75.15;98545.63;4904535;29;20407;-86
2022/02/16 10:15:52;;;;;;;;;;;;;;;4.26;74.97;98544.63;4923852;29;19994;-83
2022/02/16 10:18:18;;;;;;;;;;;;;;;4.29;74.82;98539.28;4901464;29;19930;-80
2022/02/16 10:20:43;;;;;;;;;;;;;;;4.29;74.79;98534.03;4926049;29;20434;-81
2022/02/16 10:23:09;;;;;;;;;;;;;;;4.33;74.85;98533.03;4906339;29;19970;-88
2022/02/16 10:25:35;;;;;;;;;;;;;;;4.33;75.03;98517.28;4920502;29;20029;-80
2022/02/16 10:28:13;;;;;;;;;;;;;;;4.35;75.00;98532.03;4907049;29;20071;-81
2022/02/16 10:30:58;;;;;;;;;;;;;;;4.43;74.92;98542.25;4924078;29;20481;-82
2022/02/16 10:33:31;;;;;;;;;;;;;;;4.42;74.98;98544.91;4905652;29;19935;-81
2022/02/16 10:36:06;;;;;;;;;;;;;;;4.46;75.27;98542.13;4924849;29;19923;-82
2022/02/16 10:38:32;;;;;;;;;;;;;;;4.48;75.45;98556.06;4921430;29;19954;-85
2022/02/16 10:41:00;;;;;;;;;;;;;;;4.49;75.62;98546.41;4923765;29;19978;-81
2022/02/16 10:43:38;;;;;;;;;;;;;;;4.50;75.40;98556.84;4924557;29;20872;-81
2022/02/16 10:46:22;;;;;;;;;;;;;;;4.55;75.34;98560.16;4925315;29;19930;-81
2022/02/16 10:48:48;;;;;;;;;;;;;;;4.61;75.74;98556.44;4925291;29;19922;-85
2022/02/16 10:51:14;;;;;;;;;;;;;;;4.63;75.79;98556.41;4906674;29;19926;-81
2022/02/16 10:53:39;;;;;;;;;;;;;;;4.63;75.96;98548.53;4925032;29;19926;-81
2022/02/16 10:56:07;;;;;;;;;;;;;;;4.62;76.01;98541.56;4903953;29;19918;-81
2022/02/16 10:58:32;;;;;;;;;;;;;;;4.63;75.81;98532.78;4926984;29;20005;-84
2022/02/16 11:00:59;;;;;;;;;;;;;;;4.70;75.92;98526.38;4925128;29;20014;-81
2022/02/16 11:03:31;;;;;;;;;;;;;;;4.75;76.25;98527.03;4926238;29;19922;-81
2022/02/16 11:05:58;;;;;;;;;;;;;;;4.70;75.87;98521.97;4929513;29;19918;-81
2022/02/16 11:08:24;;;;;;;;;;;;;;;4.77;76.00;98521.72;4930614;29;19959;-85
2022/02/16 11:10:50;;;;;;;;;;;;;;;4.82;76.22;98530.25;4911116;29;19923;-84
2022/02/16 11:13:16;;;;;;;;;;;;;;;4.86;76.52;98516.13;4913287;29;19918;-81
2022/02/16 11:15:44;;;;;;;;;;;;;;;4.89;76.59;98539.63;4912777;29;20673;-81
2022/02/16 11:18:12;;;;;;;;;;;;;;;4.85;76.44;98546.78;4912600;29;19935;-87
2022/02/16 11:20:37;;;;;;;;;;;;;;;4.82;76.26;98538.13;4910502;29;19923;-86
2022/02/16 11:23:03;;;;;;;;;;;;;;;4.86;76.21;98539.75;4911208;29;19929;-85
2022/02/16 11:25:38;;;;;;;;;;;;;;;4.91;76.46;98529.91;4906617;29;19930;-81
2022/02/16 11:28:11;;;;;;;;;;;;;;;4.88;76.38;98528.28;4929514;29;19957;-88
2022/02/16 11:30:37;;;;;;;;;;;;;;;4.94;76.50;98515.81;4913494;29;19966;-82
2022/02/16 11:33:14;;;;;;;;;;;;;;;5.04;76.81;98512.75;4928599;29;19929;-80
2022/02/16 11:35:56;;;;;;;;;;;;;;;5.02;76.85;98505.84;4902950;29;20045;-84
2022/02/16 11:38:22;;;;;;;;;;;;;;;4.98;76.78;98515.63;4910749;29;19930;-84
2022/02/16 11:40:51;;;;;;;;;;;;;;;5.04;76.61;98522.41;4926037;29;19923;-81
2022/02/16 11:43:18;;;;;;;;;;;;;;;5.04;76.55;98527.66;4924080;29;19973;-83
2022/02/16 11:45:45;;;;;;;;;;;;;;;5.06;77.03;98516.19;4924980;29;19931;-81
2022/02/16 11:48:12;;;;;;;;;;;;;;;5.13;77.54;98514.16;4909938;29;19930;-84
2022/02/16 11:50:38;;;;;;;;;;;;;;;5.16;77.73;98495.66;4910198;29;20887;-85
2022/02/16 11:53:05;;;;;;;;;;;;;;;5.11;77.55;98492.34;4909540;29;20597;-84
2022/02/16 11:55:30;;;;;;;;;;;;;;;5.12;77.54;98478.28;4924599;29;19926;-81
2022/02/16 11:58:01;;;;;;;;;;;;;;;5.18;77.67;98488.53;4923275;29;20279;-81
2022/02/16 12:00:42;;;;;;;;;;;;;;;5.23;77.78;98498.88;4927665;29;19926;-80
2022/02/16 12:03:12;;;;;;;;;;;;;;;5.25;77.87;98500.53;4926507;29;19923;-80
2022/02/16 12:05:45;;;;;;;;;;;;;;;5.30;78.10;98509.97;4925707;29;20551;-82
2022/02/16 12:08:15;;;;;;;;;;;;;;;5.33;78.60;98494.94;4910370;29;19950;-85
2022/02/16 12:10:41;;;;;;;;;;;;;;;5.32;78.64;98481.88;4906691;29;19926;-81
2022/02/16 12:13:07;;;;;;;;;;;;;;;5.32;78.69;98484.50;4908620;29;20450;-81
2022/02/16 12:15:32;;;;;;;;;;;;;;;5.29;78.38;98480.22;4909370;29;19970;-81
2022/02/16 12:17:58;;;;;;;;;;;;;;;5.39;78.60;98480.69;4926171;29;19930;-81
2022/02/16 12:20:26;;;;;;;;;;;;;;;5.37;78.82;98466.78;4910276;29;19923;-82
2022/02/16 12:22:52;;;;;;;;;;;;;;;5.41;78.96;98468.38;4909958;29;19923;-82
2022/02/16 12:25:17;;;;;;;;;;;;;;;5.42;79.09;98459.53;4905426;29;19961;-82
2022/02/16 12:27:43;;;;;;;;;;;;;;;5.39;79.21;98470.19;4909542;29;19930;-82
2022/02/16 12:30:09;;;;;;;;;;;;;;;5.51;79.44;98480.16;4926652;29;19926;-84
2022/02/16 12:32:34;;;;;;;;;;;;;;;5.49;79.57;98476.75;4911197;29;19950;-88
2022/02/16 12:35:07;;;;;;;;;;;;;;;5.51;79.63;98479.31;4909935;29;19996;-87
2022/02/16 12:37:32;;;;;;;;;;;;;;;5.53;79.82;98480.94;4924754;29;20037;-81
2022/02/16 12:40:00;;;;;;;;;;;;;;;5.55;79.90;98487.00;4910138;29;20586;-81
2022/02/16 12:42:32;;;;;;;;;;;;;;;5.52;79.97;98487.16;4909509;29;19958;-85
2022/02/16 12:44:58;;;;;;;;;;;;;;;5.55;80.26;98466.00;4928199;29;19934;-82
2022/02/16 12:47:24;;;;;;;;;;;;;;;5.56;80.26;98470.31;4910560;29;19923;-81
2022/02/16 12:49:49;;;;;;;;;;;;;;;5.70;80.75;98463.63;4925272;29;19978;-88
2022/02/16 12:52:15;;;;;;;;;;;;;;;5.82;81.70;98468.31;4908740;29;19930;-83
2022/02/16 12:54:41;;;;;;;;;;;;;;;6.04;83.28;98456.88;4911953;29;20548;-89
2022/02/16 12:57:07;;;;;;;;;;;;;;;6.13;84.72;98459.09;4924477;29;20017;-81
2022/02/16 12:59:36;;;;;;;;;;;;;;;6.16;86.04;98457.16;4923686;29;19946;-83
2022/02/16 13:02:20;;;;;;;;;;;;;;;6.11;86.96;98458.28;4905796;29;19929;-90
2022/02/16 13:04:53;;;;;;;;;;;;;;;5.96;87.57;98441.41;4926606;29;19923;-90
2022/02/16 13:07:22;;;;;;;;;;;;;;;5.84;87.82;98450.72;4909956;29;19923;-82
2022/02/16 13:09:47;;;;;;;;;;;;;;;5.65;87.69;98442.78;4908506;29;20417;-82
2022/02/16 13:12:33;;;;;;;;;;;;;;;5.46;87.91;98434.84;4905823;29;19971;-82
2022/02/16 13:15:04;;;;;;;;;;;;;;;5.36;88.55;98426.53;4895283;29;19931;-83
2022/02/16 13:17:30;;;;;;;;;;;;;;;5.36;90.18;98431.78;4909052;29;20508;-81
2022/02/16 13:19:55;;;;;;;;;;;;;;;5.44;92.55;98428.78;4905060;29;19930;-82
2022/02/16 13:22:22;;;;;;;;;;;;;;;5.64;95.76;98444.53;4909115;29;19934;-82
2022/02/16 13:24:50;;;;;;;;;;;;;;;5.81;99.53;98442.97;4909580;29;19923;-81
2022/02/16 13:27:15;;;;;;;;;;;;;;;6.08;100.00;98459.31;4905321;29;19965;-81
2022/02/16 13:29:40;;;;;;;;;;;;;;;6.14;100.00;98459.03;4926061;29;19962;-81
2022/02/16 13:32:06;;;;;;;;;;;;;;;6.36;100.00;98450.97;4923524;29;19929;-82
2022/02/16 13:34:50;;;;;;;;;;;;;;;6.30;100.00;98438.13;4909854;29;20397;-81
2022/02/16 13:37:15;;;;;;;;;;;;;;;6.36;100.00;98431.69;4920479;29;20068;-82
2022/02/16 13:39:40;;;;;;;;;;;;;;;6.48;100.00;98438.19;4923237;29;19923;-81
2022/02/16 13:42:06;;;;;;;;;;;;;;;6.47;100.00;98431.19;4906276;29;19925;-82
2022/02/16 13:44:33;;;;;;;;;;;;;;;6.55;100.00;98443.06;4909577;29;20311;-82
2022/02/16 13:46:59;;;;;;;;;;;;;;;6.55;100.00;98431.69;4922526;29;19989;-82
2022/02/16 13:49:25;;;;;;;;;;;;;;;6.69;100.00;98429.22;4908885;29;19934;-81
2022/02/16 13:51:54;;;;;;;;;;;;;;;6.75;100.00;98422.84;4924045;29;20012;-81
2022/02/16 13:54:27;;;;;;;;;;;;;;;6.69;100.00;98417.88;4907997;29;19927;-82
2022/02/16 13:57:04;;;;;;;;;;;;;;;6.88;100.00;98444.16;4923645;29;19930;-86
2022/02/16 13:59:29;;;;;;;;;;;;;;;6.85;100.00;98444.28;4926259;29;19954;-85
2022/02/16 14:02:05;;;;;;;;;;;;;;;6.92;100.00;98445.69;4902134;29;19927;-82
2022/02/16 14:04:33;;;;;;;;;;;;;;;6.81;100.00;98442.72;4909212;29;19927;-82
2022/02/16 14:06:59;;;;;;;;;;;;;;;6.87;100.00;98430.09;4927097;29;20021;-82
2022/02/16 14:09:24;;;;;;;;;;;;;;;6.91;100.00;98436.09;4908455;29;20021;-86
2022/02/16 14:11:49;;;;;;;;;;;;;;;6.99;100.00;98428.66;4902227;29;19977;-82
2022/02/16 14:14:15;;;;;;;;;;;;;;;7.03;100.00;98419.66;4911413;29;19922;-82
2022/02/16 14:16:40;;;;;;;;;;;;;;;6.96;100.00;98415.66;4924692;29;19923;-81
2022/02/16 14:19:23;;;;;;;;;;;;;;;6.97;100.00;98396.25;4908434;29;19923;-81
2022/02/16 14:21:50;;;;;;;;;;;;;;;7.04;100.00;98413.47;4909942;29;19950;-81
2022/02/16 14:24:15;;;;;;;;;;;;;;;7.10;100.00;98409.69;4906609;29;19930;-81
2022/02/16 14:26:41;;;;;;;;;;;;;;;6.47;100.00;98402.25;4922311;29;19927;-85
2022/02/16 14:29:06;;;;;;;;;;;;;;;4.64;100.00;98432.16;4919936;29;19930;-81
2022/02/16 14:31:32;;;;;;;;;;;;;;;3.97;100.00;98453.06;4918931;29;19931;-83
2022/02/16 14:33:57;;;;;;;;;;;;;;;3.55;100.00;98453.69;4901012;29;19935;-84
2022/02/16 14:36:22;;;;;;;;;;;;;;;3.39;98.59;98432.44;4918713;29;19937;-85
2022/02/16 14:38:47;;;;;;;;;;;;;;;3.25;97.39;98426.81;4920149;29;19923;-83
2022/02/16 14:41:13;;;;;;;;;;;;;;;3.05;96.30;98417.91;4916215;29;19937;-82
2022/02/16 14:43:38;;;;;;;;;;;;;;;2.97;95.81;98425.16;4902345;29;19923;-82
2022/02/16 14:46:03;;;;;;;;;;;;;;;2.90;95.66;98441.97;4919138;29;19929;-83
2022/02/16 14:48:28;;;;;;;;;;;;;;;2.79;95.22;98444.94;4922572;29;20390;-85
2022/02/16 14:50:53;;;;;;;;;;;;;;;2.72;94.96;98452.13;4922753;29;20939;-81
2022/02/16 14:53:19;;;;;;;;;;;;;;;2.68;94.41;98450.53;4905933;29;19981;-81
2022/02/16 14:55:46;;;;;;;;;;;;;;;2.58;94.20;98438.63;4904285;29;19926;-81
2022/02/16 14:58:12;;;;;;;;;;;;;;;2.56;93.78;98431.75;4906274;29;19923;-82
2022/02/16 15:00:37;;;;;;;;;;;;;;;2.46;93.15;98444.28;4920927;29;19927;-88
2022/02/16 15:03:03;;;;;;;;;;;;;;;2.37;92.55;98448.00;4918522;29;19922;-87
2022/02/16 15:05:29;;;;;;;;;;;;;;;2.27;91.93;98454.44;4920077;29;19930;-84
2022/02/16 15:07:55;;;;;;;;;;;;;;;2.10;91.56;98452.31;4912111;29;19950;-90
2022/02/16 15:10:20;;;;;;;;;;;;;;;2.06;91.10;98445.47;4903413;29;19973;-83
2022/02/16 15:12:45;;;;;;;;;;;;;;;2.05;90.37;98443.78;4921178;29;20429;-82
2022/02/16 15:15:11;;;;;;;;;;;;;;;1.98;89.63;98448.31;4921509;29;19922;-81
2022/02/16 15:17:37;;;;;;;;;;;;;;;1.90;89.18;98445.94;4916784;29;20442;-82
2022/02/16 15:20:03;;;;;;;;;;;;;;;1.77;88.68;98461.09;4899423;29;20497;-82
2022/02/16 15:22:28;;;;;;;;;;;;;;;1.71;88.36;98463.00;4920987;29;19969;-82
2022/02/16 15:24:55;;;;;;;;;;;;;;;1.63;88.18;98443.19;4917997;29;20402;-85
2022/02/16 15:27:21;;;;;;;;;;;;;;;1.56;88.17;98448.63;4918814;29;19923;-83
2022/02/16 15:29:46;;;;;;;;;;;;;;;1.54;88.03;98453.03;4916429;29;20414;-86
2022/02/16 15:32:13;;;;;;;;;;;;;;;1.45;87.49;98469.78;4904340;29;20291;-81
2022/02/16 15:34:39;;;;;;;;;;;;;;;1.43;87.42;98466.38;4918698;29;19935;-83
2022/02/16 15:37:04;;;;;;;;;;;;;;;1.44;87.66;98468.09;4921488;29;20512;-86
2022/02/16 15:39:29;;;;;;;;;;;;;;;1.67;89.54;98461.41;4904204;29;19926;-90
2022/02/16 15:41:58;;;;;;;;;;;;;;;1.98;91.72;98456.16;4919725;29;19922;-81
2022/02/16 15:44:23;;;;;;;;;;;;;;;2.33;94.49;98439.41;4920107;29;19923;-84
2022/02/16 15:46:48;;;;;;;;;;;;;;;2.46;96.19;98444.28;4922022;29;20561;-80
2022/02/16 15:49:14;;;;;;;;;;;;;;;2.68;97.98;98440.06;4917983;29;19985;-82
2022/02/16 15:51:39;;;;;;;;;;;;;;;2.91;99.82;98446.31;4909412;29;19982;-81
2022/02/16 15:54:04;;;;;;;;;;;;;;;2.90;100.00;98436.72;4908560;29;19931;-83
2022/02/16 15:56:30;;;;;;;;;;;;;;;2.87;100.00;98435.09;4912864;29;20022;-80
2022/02/16 15:58:55;;;;;;;;;;;;;;;2.90;100.00;98427.16;4904654;29;20395;-83
2022/02/16 16:01:21;;;;;;;;;;;;;;;3.04;100.00;98439.75;4907269;29;19927;-80
2022/02/16 16:03:47;;;;;;;;;;;;;;;3.06;100.00;98432.72;4924185;29;19930;-81
2022/02/16 16:06:12;;;;;;;;;;;;;;;2.98;100.00;98434.72;4906558;29;20095;-80
2022/02/16 16:08:37;;;;;;;;;;;;;;;2.97;100.00;98440.88;4902862;29;19923;-84
2022/02/16 16:11:03;;;;;;;;;;;;;;;2.99;100.00;98436.44;4910077;29;20009;-81
2022/02/16 16:13:28;;;;;;;;;;;;;;;3.12;100.00;98428.16;4909863;29;19937;-82
2022/02/16 16:15:53;;;;;;;;;;;;;;;3.06;100.00;98424.88;4909754;29;19931;-84
2022/02/16 16:18:19;;;;;;;;;;;;;;;3.01;100.00;98424.13;4928414;29;19923;-82
2022/02/16 16:20:45;;;;;;;;;;;;;;;3.01;100.00;98405.81;4910885;29;19923;-92
2022/02/16 16:23:10;;;;;;;;;;;;;;;3.24;100.00;98419.91;4927547;29;20406;-87
2022/02/16 16:25:41;;;;;;;;;;;;;;;3.22;100.00;98413.84;4924224;29;19922;-85
2022/02/16 16:28:06;;;;;;;;;;;;;;;3.24;100.00;98427.75;4906819;29;19922;-87
2022/02/16 16:30:31;;;;;;;;;;;;;;;3.28;100.00;98424.09;4913308;29;19931;-87
2022/02/16 16:32:57;;;;;;;;;;;;;;;3.24;100.00;98428.59;4927049;29;19922;-90
2022/02/16 16:35:22;;;;;;;;;;;;;;;3.25;100.00;98430.28;4909910;29;19989;-81
2022/02/16 16:37:49;;;;;;;;;;;;;;;3.18;100.00;98447.13;4908840;29;20482;-81
2022/02/16 16:40:14;;;;;;;;;;;;;;;3.27;100.00;98444.22;4923132;29;20174;-81
2022/02/16 16:42:40;;;;;;;;;;;;;;;3.30;100.00;98438.00;4925378;29;20112;-81
2022/02/16 16:45:06;;;;;;;;;;;;;;;3.52;100.00;98442.50;4907046;29;20017;-81
2022/02/16 16:47:31;;;;;;;;;;;;;;;3.56;100.00;98434.47;4908329;29;19923;-82
2022/02/16 16:49:57;;;;;;;;;;;;;;;3.53;100.00;98428.50;4917785;29;20159;-83
2022/02/16 16:52:22;;;;;;;;;;;;;;;3.47;100.00;98426.94;4904582;29;19927;-83
2022/02/16 16:54:48;;;;;;;;;;;;;;;3.58;100.00;98432.63;4927800;29;19922;-83
2022/02/16 16:57:13;;;;;;;;;;;;;;;3.52;100.00;98435.47;4922933;29;19926;-83
2022/02/16 16:59:38;;;;;;;;;;;;;;;3.66;100.00;98435.00;4904422;29;20263;-83
2022/02/16 17:02:04;;;;;;;;;;;;;;;3.67;100.00;98436.72;4904421;29;19923;-83
2022/02/16 17:04:29;;;;;;;;;;;;;;;3.66;99.17;98447.25;4915881;29;19942;-82
2022/02/16 17:06:54;;;;;;;;;;;;;;;3.74;98.39;98447.81;4904611;29;20271;-82
2022/02/16 17:09:20;;;;;;;;;;;;;;;3.71;97.56;98448.78;4908001;29;19922;-81
2022/02/16 17:11:47;;;;;;;;;;;;;;;3.75;96.91;98447.75;4907607;29;19919;-81
2022/02/16 17:14:12;;;;;;;;;;;;;;;3.79;96.04;98436.25;4908629;29;19926;-81
2022/02/16 17:16:37;;;;;;;;;;;;;;;3.76;95.08;98446.81;4920145;29;20412;-81
2022/02/16 17:19:02;;;;;;;;;;;;;;;3.83;94.74;98442.25;4919391;29;19929;-83
2022/02/16 17:21:28;;;;;;;;;;;;;;;3.77;94.31;98443.31;4908783;29;19973;-85
2022/02/16 17:23:54;;;;;;;;;;;;;;;3.73;94.08;98440.84;4906404;29;19967;-81
2022/02/16 17:26:23;;;;;;;;;;;;;;;3.77;93.36;98447.69;4902955;29;20010;-85
2022/02/16 17:28:48;;;;;;;;;;;;;;;3.70;93.12;98448.81;4926464;29;19927;-81
2022/02/16 17:31:16;;;;;;;;;;;;;;;3.76;93.01;98445.97;4925230;29;19929;-87
2022/02/16 17:33:42;;;;;;;;;;;;;;;3.74;92.61;98427.69;4908743;29;20331;-84
2022/02/16 17:36:09;;;;;;;;;;;;;;;3.74;92.47;98430.31;4924738;29;19926;-84
2022/02/16 17:38:34;;;;;;;;;;;;;;;3.77;92.45;98432.81;4925374;29;19919;-81
2022/02/16 17:40:59;;;;;;;;;;;;;;;3.82;92.24;98424.81;4907700;29;19934;-81
2022/02/16 17:43:25;;;;;;;;;;;;;;;3.87;92.30;98429.88;4909376;29;19919;-83
2022/02/16 17:45:50;;;;;;;;;;;;;;;3.85;92.08;98423.84;4924199;29;20426;-83
2022/02/16 17:48:19;;;;;;;;;;;;;;;3.86;92.13;98434.28;4905946;29;19938;-81
2022/02/16 17:50:45;;;;;;;;;;;;;;;3.88;91.82;98434.19;4908910;29;19962;-82
2022/02/16 17:53:10;;;;;;;;;;;;;;;3.85;91.46;98426.47;4911611;29;19930;-83
2022/02/16 17:55:35;;;;;;;;;;;;;;;3.89;91.26;98428.88;4925334;29;19919;-85
2022/02/16 17:58:00;;;;;;;;;;;;;;;3.90;91.16;98432.38;4926813;29;20009;-82
2022/02/16 18:00:30;;;;;;;;;;;;;;;3.90;90.97;98427.16;4906165;29;19927;-81
2022/02/16 18:02:56;;;;;;;;;;;;;;;3.89;90.78;98428.03;4925245;29;19926;-82
2022/02/16 18:05:21;;;;;;;;;;;;;;;3.91;90.49;98407.88;4926897;29;19933;-81
2022/02/16 18:07:47;;;;;;;;;;;;;;;3.94;90.46;98406.00;4923507;29;19922;-83
2022/02/16 18:10:12;;;;;;;;;;;;;;;4.02;90.53;98399.59;4904582;29;19934;-83
2022/02/16 18:12:37;;;;;;;;;;;;;;;4.02;90.64;98394.34;4923672;29;20496;-84
2022/02/16 18:15:03;;;;;;;;;;;;;;;4.07;90.96;98403.78;4921194;29;20214;-82
2022/02/16 18:17:28;;;;;;;;;;;;;;;4.02;90.71;98410.97;4924111;29;19934;-81
2022/02/16 18:19:54;;;;;;;;;;;;;;;4.01;90.47;98414.47;4905416;29;19942;-81
2022/02/16 18:22:23;;;;;;;;;;;;;;;3.98;89.98;98431.16;4902834;29;20482;-82
2022/02/16 18:24:49;;;;;;;;;;;;;;;4.05;90.06;98421.31;4905071;29;20376;-82
2022/02/16 18:27:15;;;;;;;;;;;;;;;4.03;90.00;98420.50;4907636;29;19923;-87
2022/02/16 18:29:40;;;;;;;;;;;;;;;4.11;90.23;98410.59;4922449;29;20170;-82
2022/02/16 18:32:06;;;;;;;;;;;;;;;4.06;89.94;98422.19;4924183;29;19970;-89
2022/02/16 18:34:31;;;;;;;;;;;;;;;4.05;89.60;98421.31;4923597;29;19946;-83
2022/02/16 18:36:58;;;;;;;;;;;;;;;4.11;89.59;98425.47;4904368;29;20474;-84
2022/02/16 18:39:23;;;;;;;;;;;;;;;4.11;89.57;98412.38;4921767;29;20013;-82
2022/02/16 18:41:48;;;;;;;;;;;;;;;4.10;89.40;98394.91;4922808;29;20009;-88
2022/02/16 18:44:14;;;;;;;;;;;;;;;4.14;89.53;98410.47;4924024;29;19958;-86
2022/02/16 18:46:39;;;;;;;;;;;;;;;4.10;89.26;98398.41;4905687;29;19943;-83
2022/02/16 18:49:05;;;;;;;;;;;;;;;4.16;89.18;98406.03;4907470;29;19923;-81
2022/02/16 18:51:30;;;;;;;;;;;;;;;4.12;88.65;98398.34;4907906;29;20329;-86
2022/02/16 18:53:56;;;;;;;;;;;;;;;4.18;88.72;98406.81;4903752;29;20288;-88
2022/02/16 18:56:24;;;;;;;;;;;;;;;4.21;88.57;98412.84;4903271;29;19970;-90
2022/02/16 18:58:50;;;;;;;;;;;;;;;4.24;88.57;98420.59;4923181;29;20063;-86
2022/02/16 19:01:15;;;;;;;;;;;;;;;4.22;88.30;98427.69;4903150;29;19970;-82
2022/02/16 19:03:41;;;;;;;;;;;;;;;4.21;88.00;98415.47;4921139;29;19919;-88
2022/02/16 19:06:06;;;;;;;;;;;;;;;4.23;87.80;98411.03;4904995;29;20056;-85
2022/02/16 19:08:32;;;;;;;;;;;;;;;4.23;87.74;98404.03;4903929;29;19922;-86
2022/02/16 19:10:57;;;;;;;;;;;;;;;4.27;87.66;98416.09;4903795;29;20318;-82
2022/02/16 19:13:23;;;;;;;;;;;;;;;4.25;87.35;98407.44;4905268;29;20355;-84
2022/02/16 19:15:49;;;;;;;;;;;;;;;4.28;87.42;98411.72;4918763;29;20354;-87
2022/02/16 19:18:14;;;;;;;;;;;;;;;4.33;87.65;98420.25;4923587;29;20421;-81
2022/02/16 19:20:41;;;;;;;;;;;;;;;4.29;87.25;98414.28;4920843;29;19923;-85
2022/02/16 19:23:06;;;;;;;;;;;;;;;4.28;86.71;98409.94;4903530;29;19946;-81
2022/02/16 19:25:32;;;;;;;;;;;;;;;4.32;86.54;98402.81;4899623;29;19947;-86
2022/02/16 19:27:58;;;;;;;;;;;;;;;4.34;86.45;98390.47;4923693;29;19925;-85
2022/02/16 19:30:24;;;;;;;;;;;;;;;4.42;86.67;98384.94;4924750;29;20519;-85
2022/02/16 19:32:49;;;;;;;;;;;;;;;4.38;86.35;98389.44;4928003;29;19985;-86
2022/02/16 19:35:21;;;;;;;;;;;;;;;4.48;86.71;98377.69;4925579;29;19923;-82
2022/02/16 19:37:51;;;;;;;;;;;;;;;4.53;86.95;98395.84;4926658;29;19923;-85
2022/02/16 19:40:16;;;;;;;;;;;;;;;4.47;86.71;98380.38;4922783;29;19925;-81
2022/02/16 19:42:42;;;;;;;;;;;;;;;4.47;86.44;98383.84;4924929;29;20009;-86
2022/02/16 19:45:09;;;;;;;;;;;;;;;4.47;86.14;98389.09;4910738;29;20030;-89
2022/02/16 19:47:35;;;;;;;;;;;;;;;4.52;86.11;98383.66;4926145;29;20409;-82
2022/02/16 19:50:00;;;;;;;;;;;;;;;4.62;86.33;98384.13;4924867;29;19986;-87
2022/02/16 19:52:27;;;;;;;;;;;;;;;4.63;86.36;98383.22;4925369;29;19928;-82
2022/02/16 19:54:52;;;;;;;;;;;;;;;4.60;86.12;98385.97;4926517;29;19922;-85
2022/02/16 19:57:23;;;;;;;;;;;;;;;4.60;85.88;98399.94;4921823;29;19955;-89
2022/02/16 19:59:49;;;;;;;;;;;;;;;4.67;85.99;98411.03;4926099;29;19929;-85
2022/02/16 20:02:14;;;;;;;;;;;;;;;4.67;85.64;98393.50;4925274;29;20165;-87
2022/02/16 20:04:40;;;;;;;;;;;;;;;4.74;85.88;98373.13;4906289;29;19988;-87
2022/02/16 20:07:05;;;;;;;;;;;;;;;4.85;86.18;98359.53;4906681;29;19930;-82
2022/02/16 20:09:31;;;;;;;;;;;;;;;4.80;86.13;98351.03;4907757;29;19970;-85
2022/02/16 20:11:56;;;;;;;;;;;;;;;4.86;86.58;98358.63;4906048;29;20303;-86
2022/02/16 20:14:21;;;;;;;;;;;;;;;4.83;86.34;98379.75;4922191;29;20033;-81
2022/02/16 20:16:47;;;;;;;;;;;;;;;4.83;86.04;98388.47;4905546;29;19997;-85
2022/02/16 20:19:15;;;;;;;;;;;;;;;4.92;86.29;98376.75;4906694;29;19980;-86
2022/02/16 20:21:40;;;;;;;;;;;;;;;4.94;86.75;98374.06;4922232;29;19929;-88
2022/02/16 20:24:06;;;;;;;;;;;;;;;4.95;86.64;98375.78;4922343;29;19931;-84
2022/02/16 20:26:31;;;;;;;;;;;;;;;4.96;86.46;98366.97;4925274;29;20425;-86
2022/02/16 20:28:58;;;;;;;;;;;;;;;5.03;86.63;98394.69;4912505;29;19930;-82
2022/02/16 20:31:24;;;;;;;;;;;;;;;5.02;86.50;98383.31;4929332;29;20353;-91
2022/02/16 20:33:49;;;;;;;;;;;;;;;5.09;86.74;98360.28;4930811;29;19937;-88
2022/02/16 20:36:15;;;;;;;;;;;;;;;4.99;86.09;98366.84;4927288;29;19927;-88
2022/02/16 20:38:40;;;;;;;;;;;;;;;5.03;85.98;98376.31;4910934;29;19930;-87
2022/02/16 20:41:05;;;;;;;;;;;;;;;5.04;85.70;98380.63;4908878;29;20001;-91